Adams, North Carolina
Current Conditions -  °F | °C
As of 5:35 PM on Monday 24 Nov 2014 (Local Time) from KTNB Reporting Station
Clear Clear  
Wind Chill: 58°   Ceiling: Unl
Heat Index: 58°   Visibility: 10mi
Dew Point: 49°   Wind: 8mph
Humidity: 73%   Direction: 190°S
Pressure: 29.83"   Gusts: NA
Location:  36.2085°N, 81.6605°W
Report Text: KTNB 242235Z AUTO 19007KT 170V230 10SM CLR 14/10 A2983 RMK AO2 LTG DSNT SE T01440096
Loading
Personal Weather Stations






























Interactive Weather Map New forecast layout! Learn more

10-Day Weather Forecast

Advertisements
Track Severe Weather on mobile